createdAt,value
2023-05-21T00:01:35.996Z,97578.84
2023-05-21T00:04:03.539Z,97582.56
2023-05-21T00:06:30.619Z,97579.41
2023-05-21T00:08:57.181Z,97571.09
2023-05-21T00:11:24.105Z,97567.41
2023-05-21T00:13:50.648Z,97570.50
2023-05-21T00:16:17.270Z,97571.66
2023-05-21T00:18:44.899Z,97579.50
2023-05-21T00:21:12.260Z,97574.25
2023-05-21T00:23:39.749Z,97568.31
2023-05-21T00:26:06.460Z,97570.06
2023-05-21T00:28:33.021Z,97574.81
2023-05-21T00:30:59.500Z,97576.50
2023-05-21T00:33:29.355Z,97567.03
2023-05-21T00:35:56.815Z,97572.09
2023-05-21T00:38:23.561Z,97575.41
2023-05-21T00:40:50.480Z,97567.31
2023-05-21T00:43:16.972Z,97567.56
2023-05-21T00:45:44.551Z,97565.88
2023-05-21T00:48:11.536Z,97560.09
2023-05-21T00:50:39.801Z,97557.25
2023-05-21T00:53:09.700Z,97557.94
2023-05-21T00:55:39.853Z,97549.00
2023-05-21T00:58:06.650Z,97552.84
2023-05-21T01:00:33.824Z,97549.09
2023-05-21T01:03:01.068Z,97549.44
2023-05-21T01:05:28.964Z,97545.72
2023-05-21T01:07:56.811Z,97540.56
2023-05-21T01:10:23.495Z,97546.75
2023-05-21T01:12:51.184Z,97543.56
2023-05-21T01:15:17.676Z,97545.59
2023-05-21T01:17:46.080Z,97537.66
2023-05-21T01:20:13.080Z,97533.91
2023-05-21T01:22:43.943Z,97543.06
2023-05-21T01:25:10.944Z,97544.75
2023-05-21T01:27:37.451Z,97544.09
2023-05-21T01:30:04.815Z,97540.66
2023-05-21T01:32:40.451Z,97530.41
2023-05-21T01:35:07.077Z,97530.03
2023-05-21T01:37:33.582Z,97536.47
2023-05-21T01:40:03.858Z,97534.66
2023-05-21T01:42:31.512Z,97537.28
2023-05-21T01:44:59.581Z,97524.38
2023-05-21T01:47:26.950Z,97530.09
2023-05-21T01:49:53.547Z,97533.38
2023-05-21T01:52:20.172Z,97535.53
2023-05-21T01:54:47.036Z,97527.94
2023-05-21T01:57:13.581Z,97528.69
2023-05-21T01:59:40.060Z,97520.72
2023-05-21T02:02:06.641Z,97527.28
2023-05-21T02:04:33.179Z,97512.97
2023-05-21T02:06:59.682Z,97515.47
2023-05-21T02:09:26.234Z,97512.28
2023-05-21T02:11:52.785Z,97516.34
2023-05-21T02:14:20.495Z,97510.06
2023-05-21T02:16:47.177Z,97506.41
2023-05-21T02:19:13.753Z,97503.03
2023-05-21T02:21:40.549Z,97508.00
2023-05-21T02:24:07.216Z,97515.19
2023-05-21T02:26:33.769Z,97514.75
2023-05-21T02:29:00.641Z,97522.50
2023-05-21T02:31:27.200Z,97533.75
2023-05-21T02:33:53.739Z,97530.03
2023-05-21T02:36:20.337Z,97532.75
2023-05-21T02:38:47.671Z,97525.03
2023-05-21T02:41:14.525Z,97529.72
2023-05-21T02:43:41.140Z,97530.78
2023-05-21T02:46:07.880Z,97525.31
2023-05-21T02:48:35.486Z,97519.94
2023-05-21T02:51:03.946Z,97514.16
2023-05-21T02:53:31.127Z,97511.03
2023-05-21T02:55:57.677Z,97516.19
2023-05-21T02:58:25.241Z,97517.16
2023-05-21T03:00:52.683Z,97504.69
2023-05-21T03:03:19.445Z,97497.22
2023-05-21T03:05:46.204Z,97508.06
2023-05-21T03:08:12.742Z,97492.09
2023-05-21T03:10:39.756Z,97493.56
2023-05-21T03:13:09.508Z,97496.66
2023-05-21T03:15:38.904Z,97501.06
2023-05-21T03:18:05.845Z,97486.50
2023-05-21T03:20:33.352Z,97498.69
2023-05-21T03:23:04.320Z,97496.34
2023-05-21T03:25:31.237Z,97498.41
2023-05-21T03:27:57.794Z,97500.94
2023-05-21T03:30:49.637Z,97497.97
2023-05-21T03:33:42.481Z,97507.19
2023-05-21T03:36:22.613Z,97511.13
2023-05-21T03:38:49.310Z,97506.69
2023-05-21T03:41:15.913Z,97509.69
2023-05-21T03:43:46.175Z,97505.91
2023-05-21T03:46:12.714Z,97509.28
2023-05-21T03:48:45.844Z,97510.03
2023-05-21T03:51:16.047Z,97516.41
2023-05-21T03:53:42.596Z,97524.06
2023-05-21T03:56:09.135Z,97519.94
2023-05-21T03:58:35.691Z,97526.78
2023-05-21T04:01:02.875Z,97530.44
2023-05-21T04:03:33.184Z,97530.28
2023-05-21T04:05:59.915Z,97527.47
2023-05-21T04:08:26.892Z,97522.03
2023-05-21T04:10:53.417Z,97532.50
2023-05-21T04:13:20.636Z,97526.03
2023-05-21T04:15:48.685Z,97532.38
2023-05-21T04:18:20.556Z,97534.56
2023-05-21T04:20:47.048Z,97545.06
2023-05-21T04:23:13.590Z,97550.69
2023-05-21T04:25:40.474Z,97553.91
2023-05-21T04:28:07.303Z,97552.72
2023-05-21T04:30:35.657Z,97549.81
2023-05-21T04:33:03.697Z,97553.13
2023-05-21T04:35:31.321Z,97551.53
2023-05-21T04:37:58.032Z,97556.50
2023-05-21T04:40:24.685Z,97560.94
2023-05-21T04:42:51.473Z,97570.88
2023-05-21T04:45:21.249Z,97557.94
2023-05-21T04:47:48.603Z,97557.59
2023-05-21T04:50:15.400Z,97561.38
2023-05-21T04:52:42.253Z,97565.00
2023-05-21T04:55:08.949Z,97566.69
2023-05-21T04:57:35.819Z,97562.44
2023-05-21T05:00:03.543Z,97564.41
2023-05-21T05:02:36.134Z,97567.63
2023-05-21T05:05:02.904Z,97565.66
2023-05-21T05:07:29.523Z,97568.78
2023-05-21T05:09:56.126Z,97564.16
2023-05-21T05:12:23.075Z,97564.94
2023-05-21T05:14:49.569Z,97569.25
2023-05-21T05:17:16.429Z,97567.19
2023-05-21T05:19:43.484Z,97564.75
2023-05-21T05:22:13.337Z,97567.06
2023-05-21T05:24:41.183Z,97575.97
2023-05-21T05:27:07.738Z,97570.13
2023-05-21T05:29:34.249Z,97570.31
2023-05-21T05:32:00.781Z,97578.53
2023-05-21T05:34:27.259Z,97575.19
2023-05-21T05:36:53.992Z,97586.31
2023-05-21T05:39:20.699Z,97579.81
2023-05-21T05:41:47.940Z,97578.31
2023-05-21T05:44:15.465Z,97584.19
2023-05-21T05:46:44.023Z,97581.25
2023-05-21T05:49:10.952Z,97593.19
2023-05-21T05:51:37.684Z,97578.81
2023-05-21T05:54:04.251Z,97589.34
2023-05-21T05:56:31.339Z,97587.38
2023-05-21T05:58:58.651Z,97585.97
2023-05-21T06:01:28.052Z,97588.56
2023-05-21T06:03:54.771Z,97588.19
2023-05-21T06:06:21.411Z,97593.63
2023-05-21T06:08:48.063Z,97590.28
2023-05-21T06:11:17.163Z,97590.25
2023-05-21T06:13:44.036Z,97582.81
2023-05-21T06:16:11.459Z,97583.28
2023-05-21T06:18:38.217Z,97581.00
2023-05-21T06:21:04.925Z,97584.38
2023-05-21T06:23:32.763Z,97593.78
2023-05-21T06:25:59.437Z,97587.75
2023-05-21T06:28:26.654Z,97584.59
2023-05-21T06:30:54.296Z,97585.34
2023-05-21T06:33:21.559Z,97585.56
2023-05-21T06:35:48.140Z,97577.91
2023-05-21T06:38:14.821Z,97583.72
2023-05-21T06:40:43.799Z,97583.47
2023-05-21T06:43:14.392Z,97583.03
2023-05-21T06:46:07.185Z,97580.34
2023-05-21T06:48:39.125Z,97577.41
2023-05-21T06:51:05.695Z,97579.88
2023-05-21T06:53:32.901Z,97581.22
2023-05-21T06:56:00.187Z,97586.72
2023-05-21T06:58:38.731Z,97579.44
2023-05-21T07:01:05.951Z,97580.56
2023-05-21T07:03:32.747Z,97584.09
2023-05-21T07:05:59.391Z,97585.16
2023-05-21T07:08:25.968Z,97585.06
2023-05-21T07:10:53.214Z,97584.69
2023-05-21T07:13:19.738Z,97583.41
2023-05-21T07:15:47.326Z,97583.47
2023-05-21T07:18:14.226Z,97579.47
2023-05-21T07:20:40.976Z,97583.31
2023-05-21T07:23:10.903Z,97589.16
2023-05-21T07:25:37.683Z,97582.41
2023-05-21T07:28:06.524Z,97580.41
2023-05-21T07:30:33.621Z,97575.13
2023-05-21T07:33:01.646Z,97576.31
2023-05-21T07:35:29.072Z,97577.75
2023-05-21T07:37:56.711Z,97578.47
2023-05-21T07:40:23.690Z,97581.47
2023-05-21T07:42:50.820Z,97575.50
2023-05-21T07:45:19.208Z,97571.88
2023-05-21T07:47:46.856Z,97575.41
2023-05-21T07:50:14.280Z,97579.78
2023-05-21T07:52:41.320Z,97574.41
2023-05-21T07:55:08.727Z,97579.38
2023-05-21T07:57:36.855Z,97578.09
2023-05-21T08:00:14.091Z,97577.91
2023-05-21T08:02:47.969Z,97570.25
2023-05-21T08:05:16.515Z,97574.78
2023-05-21T08:07:43.947Z,97575.88
2023-05-21T08:10:10.896Z,97577.88
2023-05-21T08:12:37.457Z,97573.59
2023-05-21T08:15:05.454Z,97579.56
2023-05-21T08:17:34.673Z,97581.16
2023-05-21T08:20:02.009Z,97585.34
2023-05-21T08:22:30.051Z,97578.53
2023-05-21T08:24:56.684Z,97572.03
2023-05-21T08:27:23.217Z,97581.44
2023-05-21T08:29:49.791Z,97591.44
2023-05-21T08:32:16.568Z,97587.00
2023-05-21T08:34:43.279Z,97581.41
2023-05-21T08:37:29.798Z,97584.72
2023-05-21T08:40:13.290Z,97575.50
2023-05-21T08:42:48.630Z,97582.28
2023-05-21T08:45:20.895Z,97582.41
2023-05-21T08:47:48.166Z,97582.88
2023-05-21T08:50:20.631Z,97572.66
2023-05-21T08:52:47.788Z,97583.84
2023-05-21T08:55:14.345Z,97583.97
2023-05-21T08:57:44.308Z,97581.16
2023-05-21T09:00:14.206Z,97584.19
2023-05-21T09:02:41.193Z,97587.22
2023-05-21T09:05:09.200Z,97580.38
2023-05-21T09:07:55.776Z,97578.16
2023-05-21T09:10:38.560Z,97592.34
2023-05-21T09:13:05.532Z,97580.50
2023-05-21T09:15:32.544Z,97581.16
2023-05-21T09:17:59.705Z,97575.34
2023-05-21T09:20:37.422Z,97573.75
2023-05-21T09:23:05.187Z,97574.06
2023-05-21T09:25:32.896Z,97582.50
2023-05-21T09:28:11.476Z,97580.25
2023-05-21T09:30:43.588Z,97580.25
2023-05-21T09:33:10.260Z,97581.50
2023-05-21T09:35:38.221Z,97584.25
2023-05-21T09:38:08.566Z,97578.00
2023-05-21T09:40:35.893Z,97581.38
2023-05-21T09:43:02.558Z,97575.34
2023-05-21T09:45:29.392Z,97577.69
2023-05-21T09:47:58.283Z,97584.63
2023-05-21T09:50:27.680Z,97569.31
2023-05-21T09:52:55.595Z,97571.75
2023-05-21T09:55:22.823Z,97581.72
2023-05-21T09:57:50.949Z,97576.38
2023-05-21T10:00:18.825Z,97574.44
2023-05-21T10:02:47.414Z,97572.63
2023-05-21T10:05:14.596Z,97561.63
2023-05-21T10:07:42.128Z,97578.22
2023-05-21T10:10:11.766Z,97568.06
2023-05-21T10:12:39.886Z,97571.84
2023-05-21T10:15:08.708Z,97568.38
2023-05-21T10:17:35.436Z,97572.03
2023-05-21T10:20:02.554Z,97569.34
2023-05-21T10:22:29.255Z,97564.84
2023-05-21T10:24:56.983Z,97569.81
2023-05-21T10:27:23.646Z,97562.72
2023-05-21T10:29:50.918Z,97562.75
2023-05-21T10:32:17.841Z,97556.16
2023-05-21T10:34:44.482Z,97558.66
2023-05-21T10:37:12.685Z,97554.38
2023-05-21T10:39:39.496Z,97558.34
2023-05-21T10:42:16.334Z,97564.72
2023-05-21T10:45:03.801Z,97559.38
2023-05-21T10:47:40.506Z,97563.19
2023-05-21T10:50:16.230Z,97560.38
2023-05-21T10:52:58.193Z,97554.47
2023-05-21T10:55:31.761Z,97551.69
2023-05-21T10:58:09.878Z,97556.28
2023-05-21T11:00:36.960Z,97549.84
2023-05-21T11:03:04.285Z,97544.47
2023-05-21T11:05:41.442Z,97548.38
2023-05-21T11:08:23.585Z,97549.66
2023-05-21T11:10:54.789Z,97540.66
2023-05-21T11:13:21.840Z,97545.81
2023-05-21T11:15:57.493Z,97541.78
2023-05-21T11:18:37.717Z,97545.50
2023-05-21T11:21:07.627Z,97539.81
2023-05-21T11:23:53.021Z,97541.59
2023-05-21T11:26:23.563Z,97542.13
2023-05-21T11:29:05.376Z,97539.44
2023-05-21T11:31:38.953Z,97540.19
2023-05-21T11:34:12.863Z,97541.88
2023-05-21T11:36:39.837Z,97533.63
2023-05-21T11:39:13.311Z,97529.34
2023-05-21T11:41:52.399Z,97533.38
2023-05-21T11:44:21.560Z,97519.94
2023-05-21T11:46:48.356Z,97526.25
2023-05-21T11:49:15.869Z,97523.03
2023-05-21T11:51:42.819Z,97524.09
2023-05-21T11:54:10.260Z,97526.69
2023-05-21T11:56:36.761Z,97521.25
2023-05-21T11:59:03.326Z,97526.88
2023-05-21T12:01:31.141Z,97516.56
2023-05-21T12:03:57.816Z,97514.63
2023-05-21T12:06:27.588Z,97512.25
2023-05-21T12:08:58.509Z,97514.22
2023-05-21T12:11:26.759Z,97509.16
2023-05-21T12:13:53.386Z,97510.31
2023-05-21T12:16:20.133Z,97504.22
2023-05-21T12:18:46.734Z,97502.91
2023-05-21T12:21:13.286Z,97495.69
2023-05-21T12:23:40.302Z,97502.41
2023-05-21T12:26:06.869Z,97503.81
2023-05-21T12:28:33.413Z,97496.28
2023-05-21T12:30:59.945Z,97498.88
2023-05-21T12:33:33.620Z,97504.72
2023-05-21T12:36:00.213Z,97495.78
2023-05-21T12:38:30.681Z,97493.09
2023-05-21T12:41:02.904Z,97491.25
2023-05-21T12:43:32.870Z,97499.00
2023-05-21T12:45:59.485Z,97482.66
2023-05-21T12:48:26.016Z,97484.69
2023-05-21T12:50:52.770Z,97469.25
2023-05-21T12:53:19.376Z,97469.72
2023-05-21T12:55:45.967Z,97475.47
2023-05-21T12:58:13.686Z,97469.09
2023-05-21T13:00:41.746Z,97464.00
2023-05-21T13:03:08.451Z,97458.13
2023-05-21T13:05:35.545Z,97460.88
2023-05-21T13:08:02.337Z,97448.81
2023-05-21T13:10:28.800Z,97446.44
2023-05-21T13:12:55.315Z,97450.38
2023-05-21T13:15:21.841Z,97444.22
2023-05-21T13:17:50.473Z,97435.56
2023-05-21T13:20:21.298Z,97443.75
2023-05-21T13:22:49.487Z,97451.47
2023-05-21T13:25:24.930Z,97448.72
2023-05-21T13:27:52.579Z,97441.78
2023-05-21T13:30:19.732Z,97433.16
2023-05-21T13:32:46.693Z,97438.47
2023-05-21T13:35:15.250Z,97431.00
2023-05-21T13:37:42.181Z,97423.13
2023-05-21T13:40:14.892Z,97414.16
2023-05-21T13:42:42.184Z,97411.59
2023-05-21T13:45:09.696Z,97418.47
2023-05-21T13:47:39.160Z,97411.19
2023-05-21T13:50:07.075Z,97413.38
2023-05-21T13:52:33.663Z,97411.38
2023-05-21T13:55:00.220Z,97407.75
2023-05-21T13:57:27.137Z,97419.22
2023-05-21T13:59:53.899Z,97415.22
2023-05-21T14:02:20.487Z,97411.50
2023-05-21T14:04:47.059Z,97413.56
2023-05-21T14:07:13.541Z,97412.06
2023-05-21T14:09:40.233Z,97408.19
2023-05-21T14:12:07.542Z,97411.00
2023-05-21T14:14:34.162Z,97405.00
2023-05-21T14:17:00.777Z,97403.03
2023-05-21T14:19:27.494Z,97395.84
2023-05-21T14:21:54.248Z,97402.47
2023-05-21T14:24:20.784Z,97396.94
2023-05-21T14:26:47.290Z,97389.06
2023-05-21T14:29:14.029Z,97387.81
2023-05-21T14:31:40.707Z,97392.50
2023-05-21T14:34:08.715Z,97384.25
2023-05-21T14:36:36.305Z,97389.88
2023-05-21T14:39:03.230Z,97390.97
2023-05-21T14:41:30.114Z,97384.84
2023-05-21T14:43:56.608Z,97387.09
2023-05-21T14:46:23.175Z,97382.03
2023-05-21T14:48:49.762Z,97380.13
2023-05-21T14:51:16.547Z,97382.09
2023-05-21T14:53:43.064Z,97379.66
2023-05-21T14:56:09.612Z,97383.78
2023-05-21T14:58:36.103Z,97378.47
2023-05-21T15:01:04.253Z,97379.03
2023-05-21T15:03:31.111Z,97379.97
2023-05-21T15:05:58.582Z,97385.16
2023-05-21T15:08:25.356Z,97385.72
2023-05-21T15:10:52.057Z,97389.94
2023-05-21T15:13:18.992Z,97377.81
2023-05-21T15:15:45.565Z,97373.72
2023-05-21T15:18:12.482Z,97383.03
2023-05-21T15:20:38.966Z,97379.47
2023-05-21T15:23:16.084Z,97370.94
2023-05-21T15:25:43.089Z,97377.38
2023-05-21T15:28:09.579Z,97372.03
2023-05-21T15:30:36.129Z,97375.91
2023-05-21T15:33:02.701Z,97369.97
2023-05-21T15:35:29.323Z,97372.31
2023-05-21T15:37:55.944Z,97380.53
2023-05-21T15:40:23.416Z,97393.31
2023-05-21T15:42:51.380Z,97378.25
2023-05-21T15:45:17.946Z,97381.84
2023-05-21T15:47:44.490Z,97377.97
2023-05-21T15:50:11.049Z,97383.72
2023-05-21T15:52:37.553Z,97392.16
2023-05-21T15:55:04.195Z,97384.09
2023-05-21T15:57:30.700Z,97386.06
2023-05-21T15:59:57.239Z,97390.16
2023-05-21T16:02:23.789Z,97394.41
2023-05-21T16:04:51.915Z,97383.28
2023-05-21T16:07:18.957Z,97380.81
2023-05-21T16:09:45.657Z,97390.31
2023-05-21T16:12:12.119Z,97394.44
2023-05-21T16:14:38.637Z,97389.69
2023-05-21T16:17:05.453Z,97391.00
2023-05-21T16:19:32.248Z,97393.63
2023-05-21T16:21:58.932Z,97395.41
2023-05-21T16:24:25.629Z,97394.31
2023-05-21T16:26:52.102Z,97391.69
2023-05-21T16:29:18.597Z,97387.41
2023-05-21T16:31:45.110Z,97385.03
2023-05-21T16:34:11.675Z,97393.38
2023-05-21T16:36:38.366Z,97382.50
2023-05-21T16:39:04.981Z,97380.75
2023-05-21T16:41:31.511Z,97378.44
2023-05-21T16:43:58.013Z,97391.06
2023-05-21T16:46:24.547Z,97381.09
2023-05-21T16:48:51.162Z,97388.81
2023-05-21T16:51:17.623Z,97381.56
2023-05-21T16:53:44.177Z,97392.19
2023-05-21T16:56:10.769Z,97380.59
2023-05-21T16:58:37.246Z,97381.31
2023-05-21T17:01:03.973Z,97385.50
2023-05-21T17:03:32.378Z,97390.28
2023-05-21T17:05:59.056Z,97388.41
2023-05-21T17:08:25.707Z,97394.81
2023-05-21T17:10:52.331Z,97382.66
2023-05-21T17:13:22.713Z,97390.16
2023-05-21T17:15:50.743Z,97390.53
2023-05-21T17:18:17.357Z,97398.03
2023-05-21T17:20:43.927Z,97398.63
2023-05-21T17:23:11.779Z,97402.00
2023-05-21T17:25:38.900Z,97400.53
2023-05-21T17:28:05.758Z,97394.47
2023-05-21T17:30:32.304Z,97401.75
2023-05-21T17:32:58.926Z,97398.28
2023-05-21T17:35:25.594Z,97393.75
2023-05-21T17:37:53.530Z,97408.78
2023-05-21T17:40:21.342Z,97397.03
2023-05-21T17:42:48.157Z,97407.13
2023-05-21T17:45:14.640Z,97410.22
2023-05-21T17:47:41.209Z,97416.59
2023-05-21T17:50:08.017Z,97407.59
2023-05-21T17:52:34.530Z,97408.69
2023-05-21T17:55:01.325Z,97419.66
2023-05-21T17:57:27.836Z,97416.53
2023-05-21T17:59:55.162Z,97421.03
2023-05-21T18:02:23.384Z,97423.41
2023-05-21T18:04:49.923Z,97428.56
2023-05-21T18:07:16.582Z,97427.59
2023-05-21T18:09:43.180Z,97435.78
2023-05-21T18:12:09.761Z,97434.06
2023-05-21T18:14:36.272Z,97429.53
2023-05-21T18:17:02.875Z,97431.31
2023-05-21T18:19:30.428Z,97433.41
2023-05-21T18:21:57.148Z,97437.34
2023-05-21T18:24:23.646Z,97431.00
2023-05-21T18:26:50.254Z,97431.22
2023-05-21T18:29:16.776Z,97436.25
2023-05-21T18:31:43.626Z,97437.75
2023-05-21T18:34:10.997Z,97434.72
2023-05-21T18:36:40.674Z,97437.06
2023-05-21T18:39:10.255Z,97436.44
2023-05-21T18:41:37.371Z,97436.72
2023-05-21T18:44:05.847Z,97440.56
2023-05-21T18:46:32.467Z,97442.72
2023-05-21T18:48:59.254Z,97444.66
2023-05-21T18:51:25.742Z,97439.00
2023-05-21T18:53:52.320Z,97441.53
2023-05-21T18:56:18.914Z,97444.88
2023-05-21T18:58:45.459Z,97444.28
2023-05-21T19:01:12.026Z,97451.22
2023-05-21T19:03:38.709Z,97453.31
2023-05-21T19:06:05.368Z,97451.63
2023-05-21T19:08:34.238Z,97455.84
2023-05-21T19:11:00.922Z,97459.19
2023-05-21T19:13:27.657Z,97462.56
2023-05-21T19:15:54.324Z,97468.03
2023-05-21T19:18:20.994Z,97477.69
2023-05-21T19:20:47.641Z,97482.28
2023-05-21T19:23:14.325Z,97474.97
2023-05-21T19:25:41.528Z,97484.19
2023-05-21T19:28:08.061Z,97488.16
2023-05-21T19:30:36.408Z,97502.03
2023-05-21T19:33:03.275Z,97499.06
2023-05-21T19:35:30.140Z,97501.19
2023-05-21T19:38:00.208Z,97505.72
2023-05-21T19:40:27.788Z,97504.94
2023-05-21T19:42:54.293Z,97505.34
2023-05-21T19:45:21.587Z,97515.28
2023-05-21T19:47:48.309Z,97514.81
2023-05-21T19:50:14.940Z,97513.09
2023-05-21T19:52:41.482Z,97516.84
2023-05-21T19:55:09.963Z,97515.16
2023-05-21T19:57:37.075Z,97522.34
2023-05-21T20:00:04.505Z,97516.09
2023-05-21T20:02:39.016Z,97515.34
2023-05-21T20:05:05.758Z,97510.97
2023-05-21T20:07:32.218Z,97514.94
2023-05-21T20:09:58.709Z,97519.31
2023-05-21T20:12:25.411Z,97511.38
2023-05-21T20:14:53.590Z,97516.78
2023-05-21T20:17:20.661Z,97507.31
2023-05-21T20:19:48.076Z,97509.84
2023-05-21T20:22:18.008Z,97511.16
2023-05-21T20:24:44.566Z,97507.19
2023-05-21T20:27:11.128Z,97505.03
2023-05-21T20:29:37.702Z,97505.47
2023-05-21T20:32:04.356Z,97501.25
2023-05-21T20:34:31.884Z,97493.03
2023-05-21T20:36:58.580Z,97497.13
2023-05-21T20:39:27.714Z,97496.41
2023-05-21T20:41:55.096Z,97493.94
2023-05-21T20:44:22.185Z,97498.56
2023-05-21T20:46:49.085Z,97488.44
2023-05-21T20:49:17.523Z,97497.59
2023-05-21T20:51:44.351Z,97494.13
2023-05-21T20:54:11.127Z,97491.94
2023-05-21T20:56:42.503Z,97493.03
2023-05-21T20:59:11.157Z,97497.09
2023-05-21T21:01:38.440Z,97495.94
2023-05-21T21:04:05.215Z,97503.19
2023-05-21T21:06:32.010Z,97493.88
2023-05-21T21:08:58.785Z,97501.03
2023-05-21T21:11:26.626Z,97498.47
2023-05-21T21:13:53.166Z,97496.38
2023-05-21T21:16:19.768Z,97494.59
2023-05-21T21:18:47.016Z,97502.03
2023-05-21T21:21:13.866Z,97498.44
2023-05-21T21:23:40.497Z,97502.69
2023-05-21T21:26:07.236Z,97501.22
2023-05-21T21:28:34.054Z,97504.09
2023-05-21T21:31:00.813Z,97503.59
2023-05-21T21:33:28.472Z,97506.72
2023-05-21T21:35:55.212Z,97504.50
2023-05-21T21:38:21.772Z,97504.72
2023-05-21T21:40:48.397Z,97499.13
2023-05-21T21:43:14.955Z,97499.19
2023-05-21T21:45:41.554Z,97502.94
2023-05-21T21:48:08.274Z,97498.16
2023-05-21T21:50:34.826Z,97495.41
2023-05-21T21:53:03.483Z,97502.78
2023-05-21T21:55:30.196Z,97499.13
2023-05-21T21:57:56.769Z,97503.84
2023-05-21T22:00:26.556Z,97499.81
2023-05-21T22:02:53.703Z,97505.38
2023-05-21T22:05:20.270Z,97509.75
2023-05-21T22:07:47.029Z,97507.72
2023-05-21T22:10:15.137Z,97509.75
2023-05-21T22:12:42.096Z,97500.50
2023-05-21T22:15:08.954Z,97500.88
2023-05-21T22:17:35.467Z,97504.88
2023-05-21T22:20:02.115Z,97500.50
2023-05-21T22:22:28.635Z,97500.03
2023-05-21T22:24:55.293Z,97498.44
2023-05-21T22:27:24.875Z,97498.50
2023-05-21T22:29:51.428Z,97497.69
2023-05-21T22:32:18.044Z,97500.28
2023-05-21T22:34:44.521Z,97502.94
2023-05-21T22:37:11.089Z,97507.44
2023-05-21T22:39:37.762Z,97500.03
2023-05-21T22:42:04.446Z,97513.34
2023-05-21T22:44:31.933Z,97504.25
2023-05-21T22:47:01.048Z,97506.78
2023-05-21T22:49:27.723Z,97503.16
2023-05-21T22:51:54.365Z,97504.25
2023-05-21T22:54:21.200Z,97503.44
2023-05-21T22:56:49.270Z,97502.59
2023-05-21T22:59:15.858Z,97495.97
2023-05-21T23:01:42.495Z,97495.88
2023-05-21T23:04:09.048Z,97491.31
2023-05-21T23:06:35.606Z,97495.31
2023-05-21T23:09:02.130Z,97488.28
2023-05-21T23:11:28.676Z,97482.94
2023-05-21T23:13:55.202Z,97479.78
2023-05-21T23:16:22.682Z,97482.16
2023-05-21T23:18:49.996Z,97480.97
2023-05-21T23:21:16.798Z,97478.53
2023-05-21T23:23:43.463Z,97475.56
2023-05-21T23:26:10.046Z,97481.84
2023-05-21T23:28:37.190Z,97473.91
2023-05-21T23:31:03.745Z,97474.25
2023-05-21T23:33:30.256Z,97467.50
2023-05-21T23:35:56.768Z,97476.13
2023-05-21T23:38:23.705Z,97474.84
2023-05-21T23:40:50.149Z,97469.59
2023-05-21T23:43:16.824Z,97467.13
2023-05-21T23:45:43.474Z,97467.13
2023-05-21T23:48:10.047Z,97459.34
2023-05-21T23:50:36.697Z,97462.28
2023-05-21T23:53:03.334Z,97458.16
2023-05-21T23:55:29.996Z,97465.09
2023-05-21T23:57:56.498Z,97457.78
